sensor_id;sensor_type;location;lat;lon;timestamp;temperature;humidity
21807;DHT22;11065;50.786;7.840;2023-11-19T00:00:27;12.70;61.80
21807;DHT22;11065;50.786;7.840;2023-11-19T00:02:57;12.80;61.70
21807;DHT22;11065;50.786;7.840;2023-11-19T00:05:25;12.80;61.90
21807;DHT22;11065;50.786;7.840;2023-11-19T00:07:53;12.80;61.90
21807;DHT22;11065;50.786;7.840;2023-11-19T00:10:21;12.80;61.90
21807;DHT22;11065;50.786;7.840;2023-11-19T00:12:49;12.80;61.80
21807;DHT22;11065;50.786;7.840;2023-11-19T00:15:18;12.80;61.90
21807;DHT22;11065;50.786;7.840;2023-11-19T00:17:47;12.80;62.00
21807;DHT22;11065;50.786;7.840;2023-11-19T00:20:18;12.90;62.20
21807;DHT22;11065;50.786;7.840;2023-11-19T00:22:48;12.90;62.20
21807;DHT22;11065;50.786;7.840;2023-11-19T00:25:19;13.00;62.30
21807;DHT22;11065;50.786;7.840;2023-11-19T00:27:48;12.90;62.50
21807;DHT22;11065;50.786;7.840;2023-11-19T00:30:17;12.90;62.20
21807;DHT22;11065;50.786;7.840;2023-11-19T00:32:45;12.90;62.20
21807;DHT22;11065;50.786;7.840;2023-11-19T00:35:13;12.90;62.20
21807;DHT22;11065;50.786;7.840;2023-11-19T00:37:43;12.90;62.10
21807;DHT22;11065;50.786;7.840;2023-11-19T00:40:12;13.00;62.30
21807;DHT22;11065;50.786;7.840;2023-11-19T00:42:42;13.00;62.30
21807;DHT22;11065;50.786;7.840;2023-11-19T00:45:10;12.90;62.20
21807;DHT22;11065;50.786;7.840;2023-11-19T00:47:39;13.00;62.40
21807;DHT22;11065;50.786;7.840;2023-11-19T00:50:09;13.00;62.30
21807;DHT22;11065;50.786;7.840;2023-11-19T00:52:37;13.00;62.40
21807;DHT22;11065;50.786;7.840;2023-11-19T00:55:07;13.00;62.40
21807;DHT22;11065;50.786;7.840;2023-11-19T00:57:35;13.10;62.40
21807;DHT22;11065;50.786;7.840;2023-11-19T01:00:04;13.10;62.50
21807;DHT22;11065;50.786;7.840;2023-11-19T01:02:36;13.10;62.50
21807;DHT22;11065;50.786;7.840;2023-11-19T01:05:07;13.10;62.50
21807;DHT22;11065;50.786;7.840;2023-11-19T01:07:35;13.10;62.40
21807;DHT22;11065;50.786;7.840;2023-11-19T01:10:04;13.10;62.40
21807;DHT22;11065;50.786;7.840;2023-11-19T01:12:34;13.10;62.50
21807;DHT22;11065;50.786;7.840;2023-11-19T01:15:05;13.20;62.60
21807;DHT22;11065;50.786;7.840;2023-11-19T01:17:33;13.20;62.50
21807;DHT22;11065;50.786;7.840;2023-11-19T01:20:02;13.20;62.70
21807;DHT22;11065;50.786;7.840;2023-11-19T01:22:33;13.30;62.70
21807;DHT22;11065;50.786;7.840;2023-11-19T01:25:01;13.30;62.90
21807;DHT22;11065;50.786;7.840;2023-11-19T01:27:33;13.30;62.90
21807;DHT22;11065;50.786;7.840;2023-11-19T01:30:02;13.30;63.00
21807;DHT22;11065;50.786;7.840;2023-11-19T01:32:30;13.30;62.90
21807;DHT22;11065;50.786;7.840;2023-11-19T01:34:58;13.30;62.90
21807;DHT22;11065;50.786;7.840;2023-11-19T01:37:29;13.40;62.80
21807;DHT22;11065;50.786;7.840;2023-11-19T01:39:58;13.50;63.30
21807;DHT22;11065;50.786;7.840;2023-11-19T01:42:26;13.40;62.80
21807;DHT22;11065;50.786;7.840;2023-11-19T01:45:02;13.40;62.70
21807;DHT22;11065;50.786;7.840;2023-11-19T01:47:33;13.40;62.90
21807;DHT22;11065;50.786;7.840;2023-11-19T01:50:03;13.40;62.60
21807;DHT22;11065;50.786;7.840;2023-11-19T01:52:34;13.40;62.50
21807;DHT22;11065;50.786;7.840;2023-11-19T01:55:05;13.40;62.50
21807;DHT22;11065;50.786;7.840;2023-11-19T01:57:35;13.40;62.70
21807;DHT22;11065;50.786;7.840;2023-11-19T02:00:07;13.50;62.70
21807;DHT22;11065;50.786;7.840;2023-11-19T02:02:43;13.50;62.80
21807;DHT22;11065;50.786;7.840;2023-11-19T02:05:12;13.50;63.30
21807;DHT22;11065;50.786;7.840;2023-11-19T02:07:40;13.50;63.00
21807;DHT22;11065;50.786;7.840;2023-11-19T02:10:09;13.50;63.00
21807;DHT22;11065;50.786;7.840;2023-11-19T02:12:41;13.50;63.00
21807;DHT22;11065;50.786;7.840;2023-11-19T02:15:12;13.60;63.30
21807;DHT22;11065;50.786;7.840;2023-11-19T02:17:40;13.50;63.30
21807;DHT22;11065;50.786;7.840;2023-11-19T02:20:08;13.50;63.60
21807;DHT22;11065;50.786;7.840;2023-11-19T02:22:39;13.50;63.50
21807;DHT22;11065;50.786;7.840;2023-11-19T02:25:08;13.60;63.50
21807;DHT22;11065;50.786;7.840;2023-11-19T02:27:45;13.60;63.60
21807;DHT22;11065;50.786;7.840;2023-11-19T02:30:13;13.60;63.80
21807;DHT22;11065;50.786;7.840;2023-11-19T02:32:42;13.60;64.00
21807;DHT22;11065;50.786;7.840;2023-11-19T02:35:10;13.70;63.80
21807;DHT22;11065;50.786;7.840;2023-11-19T02:37:38;13.70;64.20
21807;DHT22;11065;50.786;7.840;2023-11-19T02:40:07;13.70;64.00
21807;DHT22;11065;50.786;7.840;2023-11-19T02:42:36;13.80;64.30
21807;DHT22;11065;50.786;7.840;2023-11-19T02:45:06;13.90;64.20
21807;DHT22;11065;50.786;7.840;2023-11-19T02:47:37;13.80;63.80
21807;DHT22;11065;50.786;7.840;2023-11-19T02:50:05;13.80;63.70
21807;DHT22;11065;50.786;7.840;2023-11-19T02:52:40;13.90;63.70
21807;DHT22;11065;50.786;7.840;2023-11-19T02:55:09;13.90;63.60
21807;DHT22;11065;50.786;7.840;2023-11-19T02:57:39;13.90;63.50
21807;DHT22;11065;50.786;7.840;2023-11-19T03:00:15;13.90;63.30
21807;DHT22;11065;50.786;7.840;2023-11-19T03:02:44;13.90;63.70
21807;DHT22;11065;50.786;7.840;2023-11-19T03:05:13;13.90;63.50
21807;DHT22;11065;50.786;7.840;2023-11-19T03:07:43;13.90;63.50
21807;DHT22;11065;50.786;7.840;2023-11-19T03:10:12;13.90;63.50
21807;DHT22;11065;50.786;7.840;2023-11-19T03:12:40;14.00;63.60
21807;DHT22;11065;50.786;7.840;2023-11-19T03:15:09;14.00;63.50
21807;DHT22;11065;50.786;7.840;2023-11-19T03:17:40;14.00;63.70
21807;DHT22;11065;50.786;7.840;2023-11-19T03:20:10;14.00;63.90
21807;DHT22;11065;50.786;7.840;2023-11-19T03:22:41;14.00;63.90
21807;DHT22;11065;50.786;7.840;2023-11-19T03:25:10;14.00;63.70
21807;DHT22;11065;50.786;7.840;2023-11-19T03:27:40;14.10;63.60
21807;DHT22;11065;50.786;7.840;2023-11-19T03:30:10;14.10;63.60
21807;DHT22;11065;50.786;7.840;2023-11-19T03:32:39;14.10;63.60
21807;DHT22;11065;50.786;7.840;2023-11-19T03:35:08;14.10;63.60
21807;DHT22;11065;50.786;7.840;2023-11-19T03:37:36;14.10;63.70
21807;DHT22;11065;50.786;7.840;2023-11-19T03:40:05;14.20;63.60
21807;DHT22;11065;50.786;7.840;2023-11-19T03:42:33;14.20;63.70
21807;DHT22;11065;50.786;7.840;2023-11-19T03:45:01;14.20;63.50
21807;DHT22;11065;50.786;7.840;2023-11-19T03:47:30;14.20;63.40
21807;DHT22;11065;50.786;7.840;2023-11-19T03:50:00;14.20;63.20
21807;DHT22;11065;50.786;7.840;2023-11-19T03:52:29;14.20;63.40
21807;DHT22;11065;50.786;7.840;2023-11-19T03:55:09;14.20;63.70
21807;DHT22;11065;50.786;7.840;2023-11-19T03:57:38;14.20;64.20
21807;DHT22;11065;50.786;7.840;2023-11-19T04:00:07;14.20;63.80
21807;DHT22;11065;50.786;7.840;2023-11-19T04:02:40;14.20;63.60
21807;DHT22;11065;50.786;7.840;2023-11-19T04:05:09;14.20;63.60
21807;DHT22;11065;50.786;7.840;2023-11-19T04:07:37;14.30;63.60
21807;DHT22;11065;50.786;7.840;2023-11-19T04:10:06;14.20;63.50
21807;DHT22;11065;50.786;7.840;2023-11-19T04:12:35;14.20;63.30
21807;DHT22;11065;50.786;7.840;2023-11-19T04:15:03;14.20;63.20
21807;DHT22;11065;50.786;7.840;2023-11-19T04:17:32;14.20;63.20
21807;DHT22;11065;50.786;7.840;2023-11-19T04:20:00;14.20;63.20
21807;DHT22;11065;50.786;7.840;2023-11-19T04:22:30;14.30;63.40
21807;DHT22;11065;50.786;7.840;2023-11-19T04:24:58;14.30;63.50
21807;DHT22;11065;50.786;7.840;2023-11-19T04:27:28;14.30;63.60
21807;DHT22;11065;50.786;7.840;2023-11-19T04:29:56;14.30;63.50
21807;DHT22;11065;50.786;7.840;2023-11-19T04:32:25;14.30;63.50
21807;DHT22;11065;50.786;7.840;2023-11-19T04:34:53;14.40;63.50
21807;DHT22;11065;50.786;7.840;2023-11-19T04:37:21;14.40;63.60
21807;DHT22;11065;50.786;7.840;2023-11-19T04:39:51;14.40;63.60
21807;DHT22;11065;50.786;7.840;2023-11-19T04:42:19;14.40;63.60
21807;DHT22;11065;50.786;7.840;2023-11-19T04:44:47;14.40;63.40
21807;DHT22;11065;50.786;7.840;2023-11-19T04:47:15;14.40;63.30
21807;DHT22;11065;50.786;7.840;2023-11-19T04:49:43;14.50;63.40
21807;DHT22;11065;50.786;7.840;2023-11-19T04:52:10;14.50;63.50
21807;DHT22;11065;50.786;7.840;2023-11-19T04:54:41;14.50;63.30
21807;DHT22;11065;50.786;7.840;2023-11-19T04:57:11;14.50;63.20
21807;DHT22;11065;50.786;7.840;2023-11-19T04:59:39;14.50;63.20
21807;DHT22;11065;50.786;7.840;2023-11-19T05:02:08;14.50;63.20
21807;DHT22;11065;50.786;7.840;2023-11-19T05:04:36;14.60;63.40
21807;DHT22;11065;50.786;7.840;2023-11-19T05:07:05;14.60;63.30
21807;DHT22;11065;50.786;7.840;2023-11-19T05:09:33;14.60;63.20
21807;DHT22;11065;50.786;7.840;2023-11-19T05:12:01;14.60;63.20
21807;DHT22;11065;50.786;7.840;2023-11-19T05:14:31;14.60;63.10
21807;DHT22;11065;50.786;7.840;2023-11-19T05:16:58;14.60;63.30
21807;DHT22;11065;50.786;7.840;2023-11-19T05:19:26;14.50;63.20
21807;DHT22;11065;50.786;7.840;2023-11-19T05:21:55;14.60;63.20
21807;DHT22;11065;50.786;7.840;2023-11-19T05:24:23;14.50;63.10
21807;DHT22;11065;50.786;7.840;2023-11-19T05:26:52;14.50;63.30
21807;DHT22;11065;50.786;7.840;2023-11-19T05:29:19;14.50;63.20
21807;DHT22;11065;50.786;7.840;2023-11-19T05:31:49;14.50;63.40
21807;DHT22;11065;50.786;7.840;2023-11-19T05:34:16;14.50;63.20
21807;DHT22;11065;50.786;7.840;2023-11-19T05:36:45;14.50;63.20
21807;DHT22;11065;50.786;7.840;2023-11-19T05:39:13;14.50;63.20
21807;DHT22;11065;50.786;7.840;2023-11-19T05:41:41;14.50;63.20
21807;DHT22;11065;50.786;7.840;2023-11-19T05:44:09;14.50;63.20
21807;DHT22;11065;50.786;7.840;2023-11-19T05:46:37;14.50;63.20
21807;DHT22;11065;50.786;7.840;2023-11-19T05:49:11;14.50;63.20
21807;DHT22;11065;50.786;7.840;2023-11-19T05:51:40;14.50;63.20
21807;DHT22;11065;50.786;7.840;2023-11-19T05:54:09;14.60;63.20
21807;DHT22;11065;50.786;7.840;2023-11-19T05:56:37;14.60;63.10
21807;DHT22;11065;50.786;7.840;2023-11-19T05:59:05;14.60;62.90
21807;DHT22;11065;50.786;7.840;2023-11-19T06:01:41;14.60;62.90
21807;DHT22;11065;50.786;7.840;2023-11-19T06:04:11;14.60;62.80
21807;DHT22;11065;50.786;7.840;2023-11-19T06:06:39;14.60;62.60
21807;DHT22;11065;50.786;7.840;2023-11-19T06:09:07;14.60;62.60
21807;DHT22;11065;50.786;7.840;2023-11-19T06:11:39;14.60;62.50
21807;DHT22;11065;50.786;7.840;2023-11-19T06:14:07;14.60;62.40
21807;DHT22;11065;50.786;7.840;2023-11-19T06:16:35;14.60;62.90
21807;DHT22;11065;50.786;7.840;2023-11-19T06:19:03;14.50;62.10
21807;DHT22;11065;50.786;7.840;2023-11-19T06:21:33;14.50;62.10
21807;DHT22;11065;50.786;7.840;2023-11-19T06:24:02;14.50;62.00
21807;DHT22;11065;50.786;7.840;2023-11-19T06:26:30;14.50;62.10
21807;DHT22;11065;50.786;7.840;2023-11-19T06:28:58;14.50;62.10
21807;DHT22;11065;50.786;7.840;2023-11-19T06:31:26;14.50;62.30
21807;DHT22;11065;50.786;7.840;2023-11-19T06:33:54;14.50;62.40
21807;DHT22;11065;50.786;7.840;2023-11-19T06:36:22;14.50;62.40
21807;DHT22;11065;50.786;7.840;2023-11-19T06:38:52;14.50;62.40
21807;DHT22;11065;50.786;7.840;2023-11-19T06:41:20;14.50;62.40
21807;DHT22;11065;50.786;7.840;2023-11-19T06:43:48;14.50;62.40
21807;DHT22;11065;50.786;7.840;2023-11-19T06:46:16;14.50;62.30
21807;DHT22;11065;50.786;7.840;2023-11-19T06:48:44;14.60;62.30
21807;DHT22;11065;50.786;7.840;2023-11-19T06:51:13;14.60;62.30
21807;DHT22;11065;50.786;7.840;2023-11-19T06:53:42;14.60;62.00
21807;DHT22;11065;50.786;7.840;2023-11-19T06:56:20;14.50;62.00
21807;DHT22;11065;50.786;7.840;2023-11-19T06:58:48;14.60;61.90
21807;DHT22;11065;50.786;7.840;2023-11-19T07:01:17;14.60;61.90
21807;DHT22;11065;50.786;7.840;2023-11-19T07:03:45;14.60;61.90
21807;DHT22;11065;50.786;7.840;2023-11-19T07:06:14;14.60;61.80
21807;DHT22;11065;50.786;7.840;2023-11-19T07:08:42;14.70;61.80
21807;DHT22;11065;50.786;7.840;2023-11-19T07:11:11;14.70;61.70
21807;DHT22;11065;50.786;7.840;2023-11-19T07:13:42;14.70;62.30
21807;DHT22;11065;50.786;7.840;2023-11-19T07:16:10;14.70;61.20
21807;DHT22;11065;50.786;7.840;2023-11-19T07:18:38;14.70;61.10
21807;DHT22;11065;50.786;7.840;2023-11-19T07:21:06;14.70;61.20
21807;DHT22;11065;50.786;7.840;2023-11-19T07:23:37;14.70;61.10
21807;DHT22;11065;50.786;7.840;2023-11-19T07:26:06;14.70;61.00
21807;DHT22;11065;50.786;7.840;2023-11-19T07:28:36;14.80;61.10
21807;DHT22;11065;50.786;7.840;2023-11-19T07:31:06;14.70;61.00
21807;DHT22;11065;50.786;7.840;2023-11-19T07:33:34;14.80;61.00
21807;DHT22;11065;50.786;7.840;2023-11-19T07:36:03;14.80;60.90
21807;DHT22;11065;50.786;7.840;2023-11-19T07:38:31;14.80;60.80
21807;DHT22;11065;50.786;7.840;2023-11-19T07:40:59;14.80;60.90
21807;DHT22;11065;50.786;7.840;2023-11-19T07:43:27;14.80;61.00
21807;DHT22;11065;50.786;7.840;2023-11-19T07:45:55;14.90;60.90
21807;DHT22;11065;50.786;7.840;2023-11-19T07:48:27;14.90;60.70
21807;DHT22;11065;50.786;7.840;2023-11-19T07:50:55;14.90;60.50
21807;DHT22;11065;50.786;7.840;2023-11-19T07:53:24;14.90;60.50
21807;DHT22;11065;50.786;7.840;2023-11-19T07:55:52;14.90;60.40
21807;DHT22;11065;50.786;7.840;2023-11-19T07:58:20;14.90;60.30
21807;DHT22;11065;50.786;7.840;2023-11-19T08:00:48;14.90;60.00
21807;DHT22;11065;50.786;7.840;2023-11-19T08:03:16;14.90;59.80
21807;DHT22;11065;50.786;7.840;2023-11-19T08:05:47;14.90;59.90
21807;DHT22;11065;50.786;7.840;2023-11-19T08:08:15;14.90;59.60
21807;DHT22;11065;50.786;7.840;2023-11-19T08:10:43;14.90;59.40
21807;DHT22;11065;50.786;7.840;2023-11-19T08:13:12;14.90;59.70
21807;DHT22;11065;50.786;7.840;2023-11-19T08:15:39;15.00;59.80
21807;DHT22;11065;50.786;7.840;2023-11-19T08:18:07;15.00;59.30
21807;DHT22;11065;50.786;7.840;2023-11-19T08:20:36;15.00;59.50
21807;DHT22;11065;50.786;7.840;2023-11-19T08:23:05;15.00;59.50
21807;DHT22;11065;50.786;7.840;2023-11-19T08:25:33;15.00;59.10
21807;DHT22;11065;50.786;7.840;2023-11-19T08:28:01;15.00;59.30
21807;DHT22;11065;50.786;7.840;2023-11-19T08:30:30;15.10;59.30
21807;DHT22;11065;50.786;7.840;2023-11-19T08:32:58;15.10;59.20
21807;DHT22;11065;50.786;7.840;2023-11-19T08:35:29;15.10;59.20
21807;DHT22;11065;50.786;7.840;2023-11-19T08:37:57;15.10;58.80
21807;DHT22;11065;50.786;7.840;2023-11-19T08:40:27;15.10;59.00
21807;DHT22;11065;50.786;7.840;2023-11-19T08:42:56;15.10;58.90
21807;DHT22;11065;50.786;7.840;2023-11-19T08:45:24;15.00;58.60
21807;DHT22;11065;50.786;7.840;2023-11-19T08:47:52;15.00;58.90
21807;DHT22;11065;50.786;7.840;2023-11-19T08:50:21;15.00;58.80
21807;DHT22;11065;50.786;7.840;2023-11-19T08:52:49;14.90;58.70
21807;DHT22;11065;50.786;7.840;2023-11-19T08:55:17;14.90;58.80
21807;DHT22;11065;50.786;7.840;2023-11-19T08:57:46;14.80;58.90
21807;DHT22;11065;50.786;7.840;2023-11-19T09:00:14;14.80;59.00
21807;DHT22;11065;50.786;7.840;2023-11-19T09:02:42;14.70;59.00
21807;DHT22;11065;50.786;7.840;2023-11-19T09:05:11;14.70;59.10
21807;DHT22;11065;50.786;7.840;2023-11-19T09:07:39;14.60;59.20
21807;DHT22;11065;50.786;7.840;2023-11-19T09:10:08;14.70;59.50
21807;DHT22;11065;50.786;7.840;2023-11-19T09:12:38;14.70;60.50
21807;DHT22;11065;50.786;7.840;2023-11-19T09:15:08;14.80;61.10
21807;DHT22;11065;50.786;7.840;2023-11-19T09:17:37;15.00;62.30
21807;DHT22;11065;50.786;7.840;2023-11-19T09:20:06;15.30;63.70
21807;DHT22;11065;50.786;7.840;2023-11-19T09:22:34;15.70;64.00
21807;DHT22;11065;50.786;7.840;2023-11-19T09:25:03;16.00;63.20
21807;DHT22;11065;50.786;7.840;2023-11-19T09:27:31;16.30;61.90
21807;DHT22;11065;50.786;7.840;2023-11-19T09:29:59;16.50;60.40
21807;DHT22;11065;50.786;7.840;2023-11-19T09:32:30;16.70;59.90
21807;DHT22;11065;50.786;7.840;2023-11-19T09:34:59;16.90;59.50
21807;DHT22;11065;50.786;7.840;2023-11-19T09:37:28;16.90;59.00
21807;DHT22;11065;50.786;7.840;2023-11-19T09:39:56;17.00;58.60
21807;DHT22;11065;50.786;7.840;2023-11-19T09:42:24;17.00;58.50
21807;DHT22;11065;50.786;7.840;2023-11-19T09:44:53;17.10;58.30
21807;DHT22;11065;50.786;7.840;2023-11-19T09:47:22;17.20;58.10
21807;DHT22;11065;50.786;7.840;2023-11-19T09:49:52;17.30;57.90
21807;DHT22;11065;50.786;7.840;2023-11-19T09:52:23;17.30;57.60
21807;DHT22;11065;50.786;7.840;2023-11-19T09:54:52;17.40;57.50
21807;DHT22;11065;50.786;7.840;2023-11-19T09:57:20;17.40;57.40
21807;DHT22;11065;50.786;7.840;2023-11-19T09:59:48;17.50;56.90
21807;DHT22;11065;50.786;7.840;2023-11-19T10:02:18;17.60;57.40
21807;DHT22;11065;50.786;7.840;2023-11-19T10:04:47;17.70;57.10
21807;DHT22;11065;50.786;7.840;2023-11-19T10:07:17;17.90;57.90
21807;DHT22;11065;50.786;7.840;2023-11-19T10:09:46;18.10;57.70
21807;DHT22;11065;50.786;7.840;2023-11-19T10:12:15;18.40;57.10
21807;DHT22;11065;50.786;7.840;2023-11-19T10:14:43;18.60;56.70
21807;DHT22;11065;50.786;7.840;2023-11-19T10:17:11;18.70;56.10
21807;DHT22;11065;50.786;7.840;2023-11-19T10:19:40;18.80;55.70
21807;DHT22;11065;50.786;7.840;2023-11-19T10:22:08;18.90;55.20
21807;DHT22;11065;50.786;7.840;2023-11-19T10:24:37;18.80;54.40
21807;DHT22;11065;50.786;7.840;2023-11-19T10:27:14;18.80;54.10
21807;DHT22;11065;50.786;7.840;2023-11-19T10:29:45;18.70;54.00
21807;DHT22;11065;50.786;7.840;2023-11-19T10:32:13;18.60;53.40
21807;DHT22;11065;50.786;7.840;2023-11-19T10:34:58;18.50;54.50
21807;DHT22;11065;50.786;7.840;2023-11-19T10:37:32;18.60;55.20
21807;DHT22;11065;50.786;7.840;2023-11-19T10:40:05;18.70;54.10
21807;DHT22;11065;50.786;7.840;2023-11-19T10:42:33;18.80;52.60
21807;DHT22;11065;50.786;7.840;2023-11-19T10:45:02;18.80;53.30
21807;DHT22;11065;50.786;7.840;2023-11-19T10:47:31;18.70;52.90
21807;DHT22;11065;50.786;7.840;2023-11-19T10:50:03;18.60;52.80
21807;DHT22;11065;50.786;7.840;2023-11-19T10:52:31;18.50;52.20
21807;DHT22;11065;50.786;7.840;2023-11-19T10:55:07;18.30;52.60
21807;DHT22;11065;50.786;7.840;2023-11-19T10:57:37;18.20;52.50
21807;DHT22;11065;50.786;7.840;2023-11-19T11:00:09;18.10;52.90
21807;DHT22;11065;50.786;7.840;2023-11-19T11:02:41;18.00;52.90
21807;DHT22;11065;50.786;7.840;2023-11-19T11:05:11;17.90;52.50
21807;DHT22;11065;50.786;7.840;2023-11-19T11:07:40;17.80;52.70
21807;DHT22;11065;50.786;7.840;2023-11-19T11:10:11;17.70;52.60
21807;DHT22;11065;50.786;7.840;2023-11-19T11:12:41;17.60;52.60
21807;DHT22;11065;50.786;7.840;2023-11-19T11:15:11;17.60;52.70
21807;DHT22;11065;50.786;7.840;2023-11-19T11:17:39;17.40;53.10
21807;DHT22;11065;50.786;7.840;2023-11-19T11:20:10;17.40;52.40
21807;DHT22;11065;50.786;7.840;2023-11-19T11:22:44;17.30;52.40
21807;DHT22;11065;50.786;7.840;2023-11-19T11:25:27;17.20;52.60
21807;DHT22;11065;50.786;7.840;2023-11-19T11:28:21;17.20;52.50
21807;DHT22;11065;50.786;7.840;2023-11-19T11:31:08;17.10;52.50
21807;DHT22;11065;50.786;7.840;2023-11-19T11:33:56;17.10;52.50
21807;DHT22;11065;50.786;7.840;2023-11-19T11:36:31;17.10;52.60
21807;DHT22;11065;50.786;7.840;2023-11-19T11:38:59;17.20;53.00
21807;DHT22;11065;50.786;7.840;2023-11-19T11:41:29;17.20;53.20
21807;DHT22;11065;50.786;7.840;2023-11-19T11:43:58;17.20;52.90
21807;DHT22;11065;50.786;7.840;2023-11-19T11:46:55;17.20;52.80
21807;DHT22;11065;50.786;7.840;2023-11-19T11:49:25;17.20;52.10
21807;DHT22;11065;50.786;7.840;2023-11-19T11:52:04;17.20;52.80
21807;DHT22;11065;50.786;7.840;2023-11-19T11:54:32;17.20;52.00
21807;DHT22;11065;50.786;7.840;2023-11-19T11:57:05;17.10;52.60
21807;DHT22;11065;50.786;7.840;2023-11-19T11:59:49;17.10;52.30
21807;DHT22;11065;50.786;7.840;2023-11-19T12:02:18;17.10;52.10
21807;DHT22;11065;50.786;7.840;2023-11-19T12:04:48;17.00;52.50
21807;DHT22;11065;50.786;7.840;2023-11-19T12:07:18;17.00;52.40
21807;DHT22;11065;50.786;7.840;2023-11-19T12:09:52;17.00;52.50
21807;DHT22;11065;50.786;7.840;2023-11-19T12:12:26;17.00;52.10
21807;DHT22;11065;50.786;7.840;2023-11-19T12:15:02;16.90;52.10
21807;DHT22;11065;50.786;7.840;2023-11-19T12:20:21;16.90;51.60
21807;DHT22;11065;50.786;7.840;2023-11-19T12:22:53;16.80;52.30
21807;DHT22;11065;50.786;7.840;2023-11-19T12:25:21;16.80;52.20
21807;DHT22;11065;50.786;7.840;2023-11-19T12:27:52;16.80;52.20
21807;DHT22;11065;50.786;7.840;2023-11-19T12:30:22;16.70;52.40
21807;DHT22;11065;50.786;7.840;2023-11-19T12:32:50;16.70;52.60
21807;DHT22;11065;50.786;7.840;2023-11-19T12:35:20;16.60;52.70
21807;DHT22;11065;50.786;7.840;2023-11-19T12:37:49;16.50;52.80
21807;DHT22;11065;50.786;7.840;2023-11-19T12:40:19;16.40;52.80
21807;DHT22;11065;50.786;7.840;2023-11-19T12:42:48;16.30;52.80
21807;DHT22;11065;50.786;7.840;2023-11-19T12:45:18;16.20;52.90
21807;DHT22;11065;50.786;7.840;2023-11-19T12:47:47;16.10;53.10
21807;DHT22;11065;50.786;7.840;2023-11-19T12:50:17;16.10;53.30
21807;DHT22;11065;50.786;7.840;2023-11-19T12:52:55;16.10;53.90
21807;DHT22;11065;50.786;7.840;2023-11-19T12:55:25;16.20;55.10
21807;DHT22;11065;50.786;7.840;2023-11-19T12:57:56;16.40;55.40
21807;DHT22;11065;50.786;7.840;2023-11-19T13:00:27;16.60;55.40
21807;DHT22;11065;50.786;7.840;2023-11-19T13:02:56;16.80;55.00
21807;DHT22;11065;50.786;7.840;2023-11-19T13:05:27;16.90;54.40
21807;DHT22;11065;50.786;7.840;2023-11-19T13:08:01;17.00;53.90
21807;DHT22;11065;50.786;7.840;2023-11-19T13:10:29;17.00;53.30
21807;DHT22;11065;50.786;7.840;2023-11-19T13:13:05;16.90;53.00
21807;DHT22;11065;50.786;7.840;2023-11-19T13:15:35;16.80;53.00
21807;DHT22;11065;50.786;7.840;2023-11-19T13:18:03;16.80;53.10
21807;DHT22;11065;50.786;7.840;2023-11-19T13:20:31;16.70;53.20
21807;DHT22;11065;50.786;7.840;2023-11-19T13:23:00;16.60;53.20
21807;DHT22;11065;50.786;7.840;2023-11-19T13:25:29;16.50;53.40
21807;DHT22;11065;50.786;7.840;2023-11-19T13:27:58;16.50;53.50
21807;DHT22;11065;50.786;7.840;2023-11-19T13:30:26;16.40;53.40
21807;DHT22;11065;50.786;7.840;2023-11-19T13:32:57;16.40;53.50
21807;DHT22;11065;50.786;7.840;2023-11-19T13:35:25;16.30;53.30
21807;DHT22;11065;50.786;7.840;2023-11-19T13:37:54;16.20;53.20
21807;DHT22;11065;50.786;7.840;2023-11-19T13:40:22;16.20;53.30
21807;DHT22;11065;50.786;7.840;2023-11-19T13:42:51;16.10;53.40
21807;DHT22;11065;50.786;7.840;2023-11-19T13:45:19;16.00;53.40
21807;DHT22;11065;50.786;7.840;2023-11-19T13:47:48;16.00;53.50
21807;DHT22;11065;50.786;7.840;2023-11-19T13:50:17;15.90;53.60
21807;DHT22;11065;50.786;7.840;2023-11-19T13:52:45;15.80;53.60
21807;DHT22;11065;50.786;7.840;2023-11-19T13:55:14;15.80;53.80
21807;DHT22;11065;50.786;7.840;2023-11-19T13:57:42;15.70;53.90
21807;DHT22;11065;50.786;7.840;2023-11-19T14:00:12;15.70;54.10
21807;DHT22;11065;50.786;7.840;2023-11-19T14:02:41;15.60;54.20
21807;DHT22;11065;50.786;7.840;2023-11-19T14:05:09;15.60;54.20
21807;DHT22;11065;50.786;7.840;2023-11-19T14:07:39;15.70;54.70
21807;DHT22;11065;50.786;7.840;2023-11-19T14:10:08;15.70;54.60
21807;DHT22;11065;50.786;7.840;2023-11-19T14:12:38;15.70;54.40
21807;DHT22;11065;50.786;7.840;2023-11-19T14:15:06;15.70;54.30
21807;DHT22;11065;50.786;7.840;2023-11-19T14:17:36;15.70;54.30
21807;DHT22;11065;50.786;7.840;2023-11-19T14:20:05;15.70;54.20
21807;DHT22;11065;50.786;7.840;2023-11-19T14:22:41;15.70;54.30
21807;DHT22;11065;50.786;7.840;2023-11-19T14:25:10;15.60;54.20
21807;DHT22;11065;50.786;7.840;2023-11-19T14:27:38;15.60;54.10
21807;DHT22;11065;50.786;7.840;2023-11-19T14:30:08;15.60;54.10
21807;DHT22;11065;50.786;7.840;2023-11-19T14:32:38;15.50;54.10
21807;DHT22;11065;50.786;7.840;2023-11-19T14:35:07;15.50;54.20
21807;DHT22;11065;50.786;7.840;2023-11-19T14:37:35;15.50;54.40
21807;DHT22;11065;50.786;7.840;2023-11-19T14:40:06;15.40;54.40
21807;DHT22;11065;50.786;7.840;2023-11-19T14:42:37;15.40;54.50
21807;DHT22;11065;50.786;7.840;2023-11-19T14:45:07;15.40;54.60
21807;DHT22;11065;50.786;7.840;2023-11-19T14:47:38;15.40;54.50
21807;DHT22;11065;50.786;7.840;2023-11-19T14:50:07;15.40;54.50
21807;DHT22;11065;50.786;7.840;2023-11-19T14:52:35;15.40;54.40
21807;DHT22;11065;50.786;7.840;2023-11-19T14:55:06;15.40;54.50
21807;DHT22;11065;50.786;7.840;2023-11-19T14:57:34;15.40;54.50
21807;DHT22;11065;50.786;7.840;2023-11-19T15:00:04;15.30;54.40
21807;DHT22;11065;50.786;7.840;2023-11-19T15:02:40;15.30;54.40
21807;DHT22;11065;50.786;7.840;2023-11-19T15:05:09;15.30;54.50
21807;DHT22;11065;50.786;7.840;2023-11-19T15:07:37;15.20;54.40
21807;DHT22;11065;50.786;7.840;2023-11-19T15:10:08;15.20;54.50
21807;DHT22;11065;50.786;7.840;2023-11-19T15:12:37;15.20;54.50
21807;DHT22;11065;50.786;7.840;2023-11-19T15:15:08;15.20;54.50
21807;DHT22;11065;50.786;7.840;2023-11-19T15:17:36;15.20;54.60
21807;DHT22;11065;50.786;7.840;2023-11-19T15:20:06;15.10;54.50
21807;DHT22;11065;50.786;7.840;2023-11-19T15:22:34;15.10;54.60
21807;DHT22;11065;50.786;7.840;2023-11-19T15:25:03;15.10;54.50
21807;DHT22;11065;50.786;7.840;2023-11-19T15:27:35;15.10;54.70
21807;DHT22;11065;50.786;7.840;2023-11-19T15:30:05;15.00;54.70
21807;DHT22;11065;50.786;7.840;2023-11-19T15:32:33;15.00;54.70
21807;DHT22;11065;50.786;7.840;2023-11-19T15:35:01;15.00;54.70
21807;DHT22;11065;50.786;7.840;2023-11-19T15:37:30;15.00;54.70
21807;DHT22;11065;50.786;7.840;2023-11-19T15:39:58;15.00;54.60
21807;DHT22;11065;50.786;7.840;2023-11-19T15:42:27;15.00;54.60
21807;DHT22;11065;50.786;7.840;2023-11-19T15:44:56;15.00;54.30
21807;DHT22;11065;50.786;7.840;2023-11-19T15:47:24;14.90;54.30